Terminal Aerodrome Forecast
Issued by NWS Duluth, MN

Home | Current Version | Previous Version | Text Only | Print | Product List | Glossary On
Versions: 1 2 3 4 5 6 7 8 9 10 11 12 13 14 15
000
FTUS43 KDLH 262300
TAFINL
TAF
KINL 262339Z 2700/2724 VRB04KT P6SM SCT080 BKN200
     FM270600 VRB05KT P6SM SCT080 SCT200
     FM271400 31008KT P6SM SCT030
     FM271800 30010G15KT P6SM VCTS SCT060CB=

USA.gov is the U.S. government's official web portal to all federal, state and local government web resources and services.